Time;durP1;ratioP1;P1;durP2;ratioP2;P2;SDS_P1;SDS_P2;PMS_P1;PMS_P2;Temp;Humidity;BMP_temperature;BMP_pressure;BME280_temperature;BME280_humidity;BME280_pressure;Samples;Min_cycle;Max_cycle;Signal;HPM_P1;HPM_P2
2023/03/17 00:09:42;;;;;;;15.70;9.80;;;;;;;;;;20928911;28;20250;-71
2023/03/17 00:28:55;;;;;;;12.83;9.20;;;5.40;81.70;;;;;;20984809;28;20581;-71
2023/03/17 00:38:58;;;;;;;14.30;9.20;;;5.50;82.30;;;;;;20982344;28;20229;-70
2023/03/17 00:49:09;;;;;;;16.23;9.03;;;5.50;82.80;;;;;;20982732;28;20213;-72
2023/03/17 00:59:24;;;;;;;14.50;8.00;;;5.50;83.20;;;;;;20982288;28;20203;-72
2023/03/17 01:09:26;;;;;;;10.87;7.90;;;5.50;83.40;;;;;;20981271;28;20222;-71
2023/03/17 01:19:28;;;;;;;10.70;7.70;;;5.50;83.60;;;;;;20978808;28;20254;-71
2023/03/17 01:29:29;;;;;;;12.10;7.70;;;5.60;83.80;;;;;;20979630;28;20215;-73
2023/03/17 01:39:32;;;;;;;10.30;7.10;;;5.60;84.00;;;;;;20928117;28;20568;-73
2023/03/17 01:49:37;;;;;;;12.23;7.47;;;5.70;84.10;;;;;;20923232;28;20208;-72
2023/03/17 01:59:45;;;;;;;10.60;7.37;;;5.70;84.30;;;;;;20922695;28;20324;-70
2023/03/17 02:09:47;;;;;;;9.77;7.10;;;5.70;84.50;;;;;;20921940;28;20208;-70
2023/03/17 02:19:49;;;;;;;10.33;7.23;;;5.50;84.40;;;;;;20920597;28;20704;-71
2023/03/17 02:29:51;;;;;;;11.17;6.77;;;5.70;84.80;;;;;;20919354;28;20281;-73
2023/03/17 02:39:52;;;;;;;9.17;6.60;;;5.70;84.50;;;;;;20917974;28;20239;-71
2023/03/17 02:49:54;;;;;;;7.70;5.80;;;5.70;84.30;;;;;;20917519;28;20205;-73
2023/03/17 02:59:56;;;;;;;8.17;5.90;;;;;;;;;;20917999;28;20260;-74
2023/03/17 03:09:58;;;;;;;10.10;6.20;;;5.90;84.10;;;;;;20916780;28;20610;-72
2023/03/17 03:20:01;;;;;;;9.00;6.07;;;;;;;;;;20915754;28;20271;-72
2023/03/17 03:30:03;;;;;;;8.57;5.90;;;5.90;83.90;;;;;;20915675;28;20212;-71
2023/03/17 03:40:06;;;;;;;9.57;6.00;;;5.80;84.00;;;;;;20914540;28;20742;-72
2023/03/17 03:50:09;;;;;;;7.57;5.67;;;5.80;84.00;;;;;;20913880;28;20300;-75
2023/03/17 04:00:13;;;;;;;13.20;5.57;;;5.60;84.10;;;;;;20913561;28;20730;-72
2023/03/17 04:10:15;;;;;;;10.00;5.90;;;5.50;84.60;;;;;;20913007;28;20204;-75
2023/03/17 04:20:18;;;;;;;7.60;5.60;;;5.40;84.70;;;;;;20912220;28;20725;-73
2023/03/17 04:30:19;;;;;;;8.17;5.17;;;5.30;85.10;;;;;;20912250;28;20200;-74
2023/03/17 04:40:21;;;;;;;8.00;5.17;;;5.10;85.20;;;;;;20911554;28;20231;-73
2023/03/17 04:50:23;;;;;;;13.37;8.23;;;5.00;85.40;;;;;;20911309;28;20686;-72
2023/03/17 05:00:25;;;;;;;7.50;5.20;;;;;;;;;;20911121;28;20232;-75
2023/03/17 05:10:27;;;;;;;7.67;5.10;;;4.90;86.10;;;;;;20917808;28;20605;-75
2023/03/17 05:20:28;;;;;;;7.57;4.70;;;4.80;86.30;;;;;;20925132;28;20267;-72
2023/03/17 05:30:30;;;;;;;8.33;5.40;;;4.90;86.40;;;;;;20924791;28;20211;-72
2023/03/17 05:40:33;;;;;;;6.40;4.60;;;4.80;86.30;;;;;;20923169;28;20235;-73
2023/03/17 05:50:35;;;;;;;7.30;4.63;;;;;;;;;;20921612;28;20671;-75
2023/03/17 06:00:37;;;;;;;9.00;4.67;;;;;;;;;;20921118;28;20239;-74
2023/03/17 06:10:40;;;;;;;11.03;5.10;;;5.10;86.30;;;;;;20921185;28;20207;-73
2023/03/17 06:20:42;;;;;;;9.60;5.40;;;5.10;86.10;;;;;;20919627;28;20247;-73
2023/03/17 06:30:43;;;;;;;7.97;5.30;;;5.30;86.10;;;;;;20920014;28;20280;-76
2023/03/17 06:40:45;;;;;;;7.77;4.77;;;5.50;85.90;;;;;;20917901;28;20251;-74
2023/03/17 06:50:47;;;;;;;10.60;5.03;;;;;;;;;;20918045;28;20207;-76
2023/03/17 07:00:52;;;;;;;6.23;4.80;;;6.00;84.60;;;;;;20917655;28;20247;-73
2023/03/17 07:10:57;;;;;;;8.13;4.33;;;6.20;84.20;;;;;;20916431;28;20209;-73
2023/03/17 07:21:00;;;;;;;10.60;4.80;;;6.60;83.60;;;;;;20916349;28;20253;-74
2023/03/17 07:31:06;;;;;;;10.20;4.60;;;;;;;;;;20914555;28;20227;-74
2023/03/17 07:41:12;;;;;;;7.27;4.20;;;7.10;81.60;;;;;;20913999;28;20285;-72
2023/03/17 07:51:17;;;;;;;7.33;3.77;;;7.40;80.40;;;;;;20913398;28;20205;-72
2023/03/17 08:01:19;;;;;;;9.53;4.20;;;7.80;79.00;;;;;;20912885;28;20236;-73
2023/03/17 08:11:22;;;;;;;7.63;3.40;;;7.90;78.10;;;;;;20912462;28;20299;-73
2023/03/17 08:21:25;;;;;;;7.97;4.00;;;8.30;77.30;;;;;;20911399;28;20234;-73
2023/03/17 08:31:27;;;;;;;6.07;3.60;;;8.50;76.20;;;;;;20911063;28;20262;-73
2023/03/17 08:41:30;;;;;;;7.97;3.83;;;8.70;75.30;;;;;;20911149;28;20305;-74
2023/03/17 08:51:34;;;;;;;31.33;5.70;;;8.90;74.70;;;;;;20926020;28;20267;-75
2023/03/17 09:01:36;;;;;;;22.90;5.03;;;9.30;74.10;;;;;;20926557;28;20333;-75
2023/03/17 09:11:39;;;;;;;6.37;3.87;;;9.50;73.20;;;;;;20925540;28;20207;-73
2023/03/17 09:21:41;;;;;;;7.03;3.77;;;;;;;;;;20924788;28;20718;-74
2023/03/17 09:31:43;;;;;;;5.10;3.90;;;9.80;72.50;;;;;;20924392;28;20250;-77
2023/03/17 09:42:07;;;;;;;6.83;3.90;;;10.10;70.90;;;;;;20923459;28;20728;-77
2023/03/17 09:52:15;;;;;;;6.67;4.13;;;10.40;70.30;;;;;;20922077;28;20217;-75
2023/03/17 10:02:29;;;;;;;6.60;4.00;;;10.60;70.10;;;;;;20921473;28;20245;-79
2023/03/17 10:13:02;;;;;;;6.43;4.10;;;11.20;69.10;;;;;;20920841;28;20204;-78
2023/03/17 10:23:12;;;;;;;9.83;3.70;;;11.70;67.90;;;;;;20920944;28;20611;-77
2023/03/17 10:33:13;;;;;;;6.10;3.67;;;12.10;66.90;;;;;;20918160;28;20219;-73
2023/03/17 10:43:19;;;;;;;7.37;3.47;;;12.80;66.30;;;;;;20918607;28;20654;-78
2023/03/17 10:53:29;;;;;;;7.87;3.63;;;12.90;65.80;;;;;;20917289;28;20613;-75
2023/03/17 11:03:34;;;;;;;6.97;3.70;;;13.30;64.60;;;;;;20915708;28;20243;-75
2023/03/17 11:13:36;;;;;;;6.50;3.97;;;13.50;63.90;;;;;;20914706;28;20209;-75
2023/03/17 11:23:41;;;;;;;6.83;3.77;;;13.70;63.70;;;;;;20914510;28;20297;-74
2023/03/17 11:34:07;;;;;;;3.40;3.00;;;13.70;63.70;;;;;;20913902;28;20640;-74
2023/03/17 11:44:27;;;;;;;4.77;3.33;;;13.70;63.40;;;;;;20913387;28;20235;-76
2023/03/17 11:54:56;;;;;;;7.17;3.20;;;;;;;;;;20912839;28;20635;-75
2023/03/17 12:05:01;;;;;;;4.33;3.10;;;;;;;;;;20903243;28;20588;-75
2023/03/17 12:15:04;;;;;;;5.40;3.10;;;;;;;;;;20909517;28;20212;-75
2023/03/17 12:30:04;;;;;;;7.97;3.27;;;15.70;59.70;;;;;;20981128;28;20568;-72
2023/03/17 12:49:41;;;;;;;10.63;4.27;;;16.20;58.00;;;;;;20983537;28;20904;-72
2023/03/17 12:59:47;;;;;;;7.90;3.80;;;16.30;57.70;;;;;;20983516;28;20244;-72
2023/03/17 13:10:12;;;;;;;7.57;3.07;;;16.50;57.50;;;;;;20981192;28;20269;-74
2023/03/17 13:20:18;;;;;;;4.30;2.77;;;16.80;57.40;;;;;;20979756;28;20246;-73
2023/03/17 13:30:25;;;;;;;6.23;3.40;;;16.80;56.90;;;;;;20980457;28;20215;-73
2023/03/17 13:40:48;;;;;;;5.83;3.30;;;16.90;57.20;;;;;;20978114;28;20239;-70
2023/03/17 13:51:15;;;;;;;5.43;3.60;;;17.20;57.10;;;;;;20975906;28;20238;-71
2023/03/17 14:02:41;;;;;;;6.07;3.23;;;17.80;56.60;;;;;;20983336;28;20564;-70
2023/03/17 14:12:50;;;;;;;3.63;2.90;;;18.10;55.90;;;;;;20982172;28;20720;-70
2023/03/17 14:23:02;;;;;;;3.60;3.03;;;18.80;54.90;;;;;;20982488;28;20571;-71
2023/03/17 14:33:18;;;;;;;5.83;3.47;;;19.90;53.50;;;;;;20981560;28;20700;-71
2023/03/17 14:43:23;;;;;;;3.60;3.10;;;19.90;52.80;;;;;;20980813;28;20231;-72
2023/03/17 14:53:25;;;;;;;3.70;2.87;;;19.30;52.80;;;;;;20979447;28;20707;-73
2023/03/17 15:03:29;;;;;;;5.37;2.90;;;18.50;53.60;;;;;;20978510;28;20207;-72
2023/03/17 15:13:36;;;;;;;4.57;2.80;;;17.90;54.50;;;;;;20926304;28;20292;-71
2023/03/17 15:23:39;;;;;;;6.20;3.10;;;17.30;55.80;;;;;;20922643;28;20203;-72
2023/03/17 15:33:41;;;;;;;5.10;2.90;;;16.90;57.00;;;;;;20921616;28;20285;-72
2023/03/17 15:43:43;;;;;;;7.97;3.30;;;16.60;57.90;;;;;;20921531;28;20620;-72
2023/03/17 15:53:46;;;;;;;5.03;2.97;;;16.50;58.40;;;;;;20920256;28;20336;-72
2023/03/17 16:03:48;;;;;;;7.70;2.67;;;16.10;59.20;;;;;;20919071;28;20217;-72
2023/03/17 16:13:50;;;;;;;7.50;3.10;;;16.10;59.80;;;;;;20918921;28;20288;-72
2023/03/17 16:23:52;;;;;;;4.87;2.90;;;15.80;59.90;;;;;;20916984;28;20691;-72
2023/03/17 16:33:55;;;;;;;5.27;3.17;;;15.60;60.70;;;;;;20917392;28;20238;-72
2023/03/17 16:43:59;;;;;;;5.93;3.00;;;15.60;61.40;;;;;;20916951;28;20215;-72
2023/03/17 16:54:01;;;;;;;5.50;3.27;;;15.20;61.80;;;;;;20915634;28;20644;-72
2023/03/17 17:04:07;;;;;;;7.67;3.87;;;15.10;62.20;;;;;;20915174;28;20258;-71
2023/03/17 17:14:09;;;;;;;7.23;3.20;;;14.80;63.30;;;;;;20914717;28;20235;-72
2023/03/17 17:24:12;;;;;;;9.83;3.40;;;14.60;64.80;;;;;;20912867;28;20594;-79
2023/03/17 17:34:14;;;;;;;8.77;4.00;;;14.40;65.80;;;;;;20912488;28;20302;-76
2023/03/17 17:44:15;;;;;;;13.37;5.30;;;14.20;67.30;;;;;;20911852;28;20209;-72
2023/03/17 17:54:17;;;;;;;20.87;10.23;;;14.00;68.60;;;;;;20897647;28;20249;-72
2023/03/17 18:04:19;;;;;;;15.43;7.35;;;13.90;70.00;;;;;;20877097;28;20855;-72
2023/03/17 18:14:21;;;;;;;7.80;3.77;;;13.60;72.30;;;;;;20901548;28;20288;-72
2023/03/17 18:24:23;;;;;;;13.37;5.43;;;13.40;73.30;;;;;;20897901;28;20208;-70
2023/03/17 18:34:28;;;;;;;10.77;6.17;;;;;;;;;;20889416;28;20236;-73
2023/03/17 18:44:29;;;;;;;13.80;4.67;;;13.00;75.90;;;;;;20860294;28;20240;-76
2023/03/17 18:54:31;;;;;;;15.37;7.97;;;13.00;76.20;;;;;;20842844;28;20329;-75
2023/03/17 19:04:33;;;;;;;14.23;5.60;;;12.60;78.20;;;;;;20841086;28;20259;-75
2023/03/17 19:14:39;;;;;;;31.17;10.83;;;12.50;79.40;;;;;;20839723;28;20240;-75
2023/03/17 19:24:40;;;;;;;20.07;9.00;;;12.30;80.40;;;;;;20840793;28;20697;-75
2023/03/17 19:34:42;;;;;;;15.30;8.30;;;12.20;81.50;;;;;;20839855;28;20640;-77
2023/03/17 19:44:44;;;;;;;16.00;10.00;;;12.00;82.60;;;;;;20837670;28;20211;-77
2023/03/17 19:54:46;;;;;;;18.13;9.60;;;11.90;83.70;;;;;;20835686;28;20240;-74
2023/03/17 20:04:48;;;;;;;23.03;14.07;;;11.80;84.60;;;;;;20835405;28;20544;-78
2023/03/17 20:14:50;;;;;;;22.23;11.80;;;11.70;85.40;;;;;;20835107;28;20621;-74
2023/03/17 20:24:52;;;;;;;32.40;15.40;;;11.60;86.40;;;;;;20833322;28;20262;-77
2023/03/17 20:34:54;;;;;;;19.63;9.83;;;11.40;87.60;;;;;;20833742;28;20242;-74
2023/03/17 20:44:56;;;;;;;15.23;9.47;;;11.30;89.00;;;;;;20832367;28;20266;-73
2023/03/17 20:54:58;;;;;;;18.93;9.00;;;11.30;89.80;;;;;;20830710;28;20636;-74
2023/03/17 21:05:00;;;;;;;14.30;8.03;;;11.10;90.40;;;;;;20829887;28;20261;-74
2023/03/17 21:15:02;;;;;;;18.13;9.93;;;11.00;90.80;;;;;;20829933;28;20240;-75
2023/03/17 21:25:05;;;;;;;16.90;8.40;;;10.90;91.30;;;;;;20829124;28;20207;-75
2023/03/17 21:35:07;;;;;;;16.43;8.60;;;10.90;91.60;;;;;;20828619;28;20240;-75
2023/03/17 21:45:09;;;;;;;19.50;8.23;;;10.80;91.80;;;;;;20828687;28;20209;-74
2023/03/17 21:55:11;;;;;;;14.43;7.83;;;10.70;92.00;;;;;;20827776;28;20249;-73
2023/03/17 22:05:13;;;;;;;15.33;9.00;;;10.60;92.30;;;;;;20827203;28;20255;-74
